createdAt,value
2022-09-23T00:01:11.219Z,4.20
2022-09-23T00:03:41.921Z,4.20
2022-09-23T00:06:12.232Z,4.20
2022-09-23T00:08:40.329Z,4.10
2022-09-23T00:11:12.352Z,4.10
2022-09-23T00:13:40.670Z,4.10
2022-09-23T00:16:10.586Z,4.10
2022-09-23T00:18:37.459Z,4.10
2022-09-23T00:21:05.408Z,4.00
2022-09-23T00:23:32.678Z,4.10
2022-09-23T00:26:01.739Z,4.10
2022-09-23T00:28:28.963Z,4.10
2022-09-23T00:30:55.930Z,4.10
2022-09-23T00:33:22.662Z,4.00
2022-09-23T00:35:49.802Z,4.20
2022-09-23T00:38:17.164Z,4.00
2022-09-23T00:40:44.826Z,4.00
2022-09-23T00:43:15.101Z,3.90
2022-09-23T00:45:48.409Z,3.90
2022-09-23T00:48:20.130Z,3.90
2022-09-23T00:50:51.053Z,3.80
2022-09-23T00:53:22.526Z,3.80
2022-09-23T00:55:57.241Z,3.80
2022-09-23T00:58:28.390Z,3.70
2022-09-23T01:00:55.544Z,3.70
2022-09-23T01:03:22.998Z,3.70
2022-09-23T01:05:50.878Z,3.50
2022-09-23T01:08:18.203Z,3.70
2022-09-23T01:10:57.331Z,3.60
2022-09-23T01:13:50.599Z,3.60
2022-09-23T01:16:32.569Z,3.60
2022-09-23T01:19:49.644Z,3.50
2022-09-23T01:22:42.007Z,3.60
2022-09-23T01:25:23.751Z,3.60
2022-09-23T01:27:56.551Z,3.60
2022-09-23T01:30:51.198Z,3.50
2022-09-23T01:33:30.386Z,3.50
2022-09-23T01:36:12.579Z,3.50
2022-09-23T01:38:52.643Z,3.50
2022-09-23T01:41:40.024Z,3.50
2022-09-23T01:44:33.354Z,3.50
2022-09-23T01:47:08.139Z,3.50
2022-09-23T01:49:45.096Z,3.40
2022-09-23T01:52:27.491Z,3.50
2022-09-23T01:55:15.644Z,3.40
2022-09-23T01:57:53.257Z,3.30
2022-09-23T02:00:22.438Z,3.30
2022-09-23T02:02:59.285Z,3.30
2022-09-23T02:05:37.664Z,3.30
2022-09-23T02:08:15.652Z,3.30
2022-09-23T02:10:47.232Z,3.30
2022-09-23T02:13:29.951Z,3.30
2022-09-23T02:16:02.084Z,3.30
2022-09-23T02:18:48.940Z,3.30
2022-09-23T02:21:18.076Z,3.40
2022-09-23T02:23:56.335Z,3.50
2022-09-23T02:26:52.550Z,3.50
2022-09-23T02:29:59.640Z,3.50
2022-09-23T02:32:38.186Z,3.40
2022-09-23T02:35:18.074Z,3.40
2022-09-23T02:38:12.785Z,3.40
2022-09-23T02:40:50.958Z,3.40
2022-09-23T02:43:43.056Z,3.40
2022-09-23T02:46:10.149Z,3.40
2022-09-23T02:48:43.304Z,3.40
2022-09-23T02:51:10.531Z,3.30
2022-09-23T02:53:37.710Z,3.30
2022-09-23T02:56:19.520Z,3.30
2022-09-23T02:58:48.280Z,3.30
2022-09-23T03:01:56.577Z,3.40
2022-09-23T03:04:51.047Z,3.30
2022-09-23T03:07:19.409Z,3.30
2022-09-23T03:10:16.985Z,3.30
2022-09-23T03:13:04.502Z,3.30
2022-09-23T03:15:41.990Z,3.30
2022-09-23T03:18:18.854Z,3.30
2022-09-23T03:20:52.836Z,3.30
2022-09-23T03:23:26.093Z,3.20
2022-09-23T03:25:55.877Z,3.20
2022-09-23T03:28:24.893Z,3.20
2022-09-23T03:30:53.083Z,3.20
2022-09-23T03:33:28.524Z,3.20
2022-09-23T03:36:20.903Z,3.20
2022-09-23T03:38:51.931Z,3.20
2022-09-23T03:41:28.384Z,3.10
